METAR Data
IDs: Format: Raw Decoded Include TAF

Data at: 1250 UTC 08 May 2021

METAR for:KHCR (Heber City Muni, UT, US)
Text:KHCR 081235Z AUTO 10007KT 10SM SCT060 05/01 A3001 RMK AO2
Temperature: 5.0°C ( 41°F)
Dewpoint: 1.0°C ( 34°F) [RH = 75%]
Pressure (altimeter):30.01 inches Hg (1016.3 mb)
Winds:from the E (100 degrees) at 8 MPH (7 knots; 3.6 m/s)
Visibility:10 or more sm (16+ km)
Ceiling:at least 12,000 feet AGL
Clouds: scattered clouds at 6000 feet AGL
QC Flag:automated observation with no human augmentation